CCA831 ZSPD-VHHH
Flight info
| Callsign | CCA831 |
|---|---|
| Flight time | 2h 4m |
| Altitude | 34100 |
| Route | HSN92D HSN W13 BEGMO M503 TOLAK/N0467F341 M503 LELIM/N0469F300 V591 ABBEY |
| Aircraft | A321/M-SDE3FGHIRWY/LB1 |
Departure
| Time | 2026-05-07 09:30 |
|---|---|
| Airport | Shanghai Pudong International Airport (ZSPD) |
Arrival
| Time | 2026-05-07 11:34 |
|---|---|
| Airport | Hong Kong International Airport (VHHH) |
| Time | Latitude | Longitude | Altitude | Speed | Heading |
|---|---|---|---|---|---|
| 2026-05-07 09:02 | 31.15218 | 121.80777 | 23 ft | 0 kts | 252° |
| 2026-05-07 09:20 | 31.15221 | 121.80788 | -5 ft | 4 kts | 250° |
| 2026-05-07 09:20 | 31.15231 | 121.80817 | -3 ft | 4 kts | 244° |
| 2026-05-07 09:20 | 31.15245 | 121.80845 | 31 ft | 4 kts | 231° |
| 2026-05-07 09:20 | 31.15263 | 121.80865 | 24 ft | 4 kts | 197° |
| 2026-05-07 09:21 | 31.15278 | 121.80866 | 24 ft | 1 kts | 162° |
| 2026-05-07 09:21 | 31.15281 | 121.80865 | 24 ft | 0 kts | 162° |
| 2026-05-07 09:23 | 31.15268 | 121.80870 | 23 ft | 9 kts | 161° |
| 2026-05-07 09:23 | 31.15157 | 121.80914 | 23 ft | 24 kts | 161° |
| 2026-05-07 09:23 | 31.14978 | 121.80979 | 23 ft | 28 kts | 162° |
| 2026-05-07 09:24 | 31.14800 | 121.81047 | 23 ft | 26 kts | 162° |
| 2026-05-07 09:24 | 31.14631 | 121.81109 | 23 ft | 25 kts | 162° |
| 2026-05-07 09:24 | 31.14473 | 121.81169 | 24 ft | 23 kts | 162° |
| 2026-05-07 09:24 | 31.14388 | 121.81280 | 23 ft | 20 kts | 75° |
| 2026-05-07 09:25 | 31.14388 | 121.81404 | 23 ft | 9 kts | 143° |
| 2026-05-07 09:25 | 31.14341 | 121.81460 | 23 ft | 15 kts | 100° |
| 2026-05-07 09:25 | 31.14317 | 121.81569 | 24 ft | 10 kts | 159° |
| 2026-05-07 09:25 | 31.14251 | 121.81575 | 23 ft | 16 kts | 163° |
| 2026-05-07 09:26 | 31.14115 | 121.81626 | 23 ft | 21 kts | 163° |
| 2026-05-07 09:26 | 31.13983 | 121.81676 | 23 ft | 19 kts | 162° |
| 2026-05-07 09:26 | 31.13861 | 121.81722 | 23 ft | 18 kts | 162° |
| 2026-05-07 09:26 | 31.13748 | 121.81765 | 23 ft | 16 kts | 162° |
| 2026-05-07 09:27 | 31.13647 | 121.81803 | 22 ft | 15 kts | 162° |
| 2026-05-07 09:27 | 31.13553 | 121.81839 | 22 ft | 14 kts | 162° |
| 2026-05-07 09:27 | 31.13381 | 121.81904 | 22 ft | 16 kts | 162° |
| 2026-05-07 09:28 | 31.13244 | 121.81956 | 22 ft | 26 kts | 162° |
| 2026-05-07 09:28 | 31.13104 | 121.82017 | 22 ft | 6 kts | 125° |
| 2026-05-07 09:28 | 31.13114 | 121.82075 | 22 ft | 14 kts | 79° |
| 2026-05-07 09:28 | 31.13146 | 121.82196 | 22 ft | 13 kts | 41° |
| 2026-05-07 09:29 | 31.13225 | 121.82189 | 22 ft | 14 kts | 342° |
| 2026-05-07 09:29 | 31.13475 | 121.82100 | 21 ft | 71 kts | 343° |
| 2026-05-07 09:29 | 31.14139 | 121.81852 | 25 ft | 127 kts | 341° |
| 2026-05-07 09:29 | 31.15119 | 121.81480 | 150 ft | 159 kts | 345° |
| 2026-05-07 09:30 | 31.16169 | 121.81067 | 765 ft | 160 kts | 344° |
| 2026-05-07 09:30 | 31.17279 | 121.80940 | 1307 ft | 163 kts | 2° |
| 2026-05-07 09:30 | 31.18400 | 121.80599 | 1561 ft | 180 kts | 321° |
| 2026-05-07 09:30 | 31.19048 | 121.79290 | 1712 ft | 203 kts | 281° |
| 2026-05-07 09:31 | 31.18714 | 121.77618 | 1841 ft | 230 kts | 237° |
| 2026-05-07 09:31 | 31.17375 | 121.76452 | 1983 ft | 256 kts | 197° |
| 2026-05-07 09:31 | 31.15556 | 121.76182 | 2339 ft | 271 kts | 178° |
| 2026-05-07 09:31 | 31.13680 | 121.76320 | 2951 ft | 275 kts | 174° |
| 2026-05-07 09:32 | 31.11762 | 121.76560 | 3582 ft | 280 kts | 174° |
| 2026-05-07 09:32 | 31.09816 | 121.76786 | 4287 ft | 281 kts | 175° |
| 2026-05-07 09:32 | 31.07856 | 121.76957 | 4944 ft | 284 kts | 178° |
| 2026-05-07 09:32 | 31.05875 | 121.77073 | 5629 ft | 284 kts | 179° |
| 2026-05-07 09:33 | 31.03902 | 121.77148 | 6366 ft | 283 kts | 180° |
| 2026-05-07 09:33 | 31.01926 | 121.77202 | 7032 ft | 284 kts | 181° |
| 2026-05-07 09:33 | 30.99944 | 121.77244 | 7657 ft | 286 kts | 181° |
| 2026-05-07 09:33 | 30.97937 | 121.77283 | 8199 ft | 291 kts | 181° |
| 2026-05-07 09:34 | 30.95902 | 121.77322 | 8778 ft | 294 kts | 181° |
| 2026-05-07 09:34 | 30.93848 | 121.77363 | 9372 ft | 297 kts | 181° |
| 2026-05-07 09:34 | 30.91772 | 121.77404 | 9934 ft | 300 kts | 182° |
| 2026-05-07 09:34 | 30.89638 | 121.77444 | 10163 ft | 316 kts | 182° |
| 2026-05-07 09:35 | 30.87376 | 121.77487 | 10288 ft | 334 kts | 182° |
| 2026-05-07 09:35 | 30.84992 | 121.77534 | 10407 ft | 351 kts | 181° |
| 2026-05-07 09:35 | 30.82497 | 121.77585 | 10532 ft | 367 kts | 181° |
| 2026-05-07 09:35 | 30.79895 | 121.77638 | 10693 ft | 380 kts | 181° |
| 2026-05-07 09:36 | 30.77234 | 121.77695 | 11100 ft | 384 kts | 182° |
| 2026-05-07 09:36 | 30.74556 | 121.77752 | 11588 ft | 386 kts | 182° |
| 2026-05-07 09:36 | 30.71866 | 121.77812 | 12084 ft | 387 kts | 182° |
| 2026-05-07 09:36 | 30.69166 | 121.77872 | 12577 ft | 389 kts | 182° |
| 2026-05-07 09:37 | 30.66459 | 121.77931 | 13056 ft | 390 kts | 183° |
| 2026-05-07 09:37 | 30.63741 | 121.77988 | 13521 ft | 391 kts | 183° |
| 2026-05-07 09:37 | 30.61018 | 121.78043 | 13935 ft | 392 kts | 183° |
| 2026-05-07 09:37 | 30.58282 | 121.78097 | 14281 ft | 395 kts | 183° |
| 2026-05-07 09:38 | 30.55530 | 121.78151 | 14605 ft | 397 kts | 183° |
| 2026-05-07 09:38 | 30.52753 | 121.78208 | 14916 ft | 400 kts | 183° |
| 2026-05-07 09:38 | 30.49965 | 121.78266 | 15168 ft | 403 kts | 183° |
| 2026-05-07 09:38 | 30.47181 | 121.78322 | 15433 ft | 406 kts | 183° |
| 2026-05-07 09:39 | 30.44345 | 121.78382 | 15717 ft | 408 kts | 183° |
| 2026-05-07 09:39 | 30.41498 | 121.78442 | 16001 ft | 410 kts | 183° |
| 2026-05-07 09:39 | 30.38634 | 121.78505 | 16282 ft | 412 kts | 183° |
| 2026-05-07 09:39 | 30.35759 | 121.78568 | 16559 ft | 414 kts | 183° |
| 2026-05-07 09:40 | 30.32871 | 121.78633 | 16828 ft | 416 kts | 183° |
| 2026-05-07 09:40 | 30.29970 | 121.78694 | 17097 ft | 418 kts | 183° |
| 2026-05-07 09:40 | 30.27055 | 121.78752 | 17351 ft | 420 kts | 183° |
| 2026-05-07 09:40 | 30.24134 | 121.78807 | 17658 ft | 420 kts | 184° |
| 2026-05-07 09:41 | 30.21204 | 121.78863 | 17944 ft | 422 kts | 184° |
| 2026-05-07 09:41 | 30.18260 | 121.78920 | 18215 ft | 424 kts | 184° |
| 2026-05-07 09:41 | 30.15310 | 121.78978 | 18455 ft | 425 kts | 184° |
| 2026-05-07 09:41 | 30.12346 | 121.79039 | 18697 ft | 427 kts | 184° |
| 2026-05-07 09:42 | 30.09373 | 121.79102 | 18938 ft | 428 kts | 184° |
| 2026-05-07 09:42 | 30.06390 | 121.79167 | 19184 ft | 430 kts | 184° |
| 2026-05-07 09:42 | 30.03393 | 121.79234 | 19433 ft | 431 kts | 184° |
| 2026-05-07 09:42 | 30.00383 | 121.79296 | 19658 ft | 433 kts | 184° |
| 2026-05-07 09:43 | 29.97369 | 121.79356 | 19903 ft | 435 kts | 184° |
| 2026-05-07 09:43 | 29.94338 | 121.79416 | 20149 ft | 436 kts | 184° |
| 2026-05-07 09:43 | 29.91297 | 121.79477 | 20410 ft | 438 kts | 184° |
| 2026-05-07 09:43 | 29.88241 | 121.79541 | 20663 ft | 440 kts | 184° |
| 2026-05-07 09:44 | 29.85177 | 121.79608 | 20934 ft | 441 kts | 184° |
| 2026-05-07 09:44 | 29.82087 | 121.79674 | 21168 ft | 443 kts | 184° |
| 2026-05-07 09:44 | 29.78995 | 121.79736 | 21364 ft | 446 kts | 184° |
| 2026-05-07 09:44 | 29.75925 | 121.79796 | 21638 ft | 447 kts | 185° |
| 2026-05-07 09:45 | 29.72770 | 121.79858 | 21859 ft | 449 kts | 185° |
| 2026-05-07 09:45 | 29.69685 | 121.79917 | 22069 ft | 451 kts | 185° |
| 2026-05-07 09:45 | 29.66539 | 121.79980 | 22266 ft | 453 kts | 185° |
| 2026-05-07 09:45 | 29.63390 | 121.80045 | 22554 ft | 452 kts | 185° |
| 2026-05-07 09:46 | 29.60241 | 121.80110 | 22797 ft | 454 kts | 185° |
| 2026-05-07 09:46 | 29.57078 | 121.80175 | 23022 ft | 455 kts | 185° |
| 2026-05-07 09:46 | 29.53908 | 121.80239 | 23230 ft | 457 kts | 185° |
| 2026-05-07 09:46 | 29.50720 | 121.80306 | 23437 ft | 458 kts | 185° |
| 2026-05-07 09:47 | 29.47523 | 121.80373 | 23612 ft | 460 kts | 185° |
| 2026-05-07 09:47 | 29.44322 | 121.80440 | 23792 ft | 461 kts | 185° |
| 2026-05-07 09:47 | 29.41115 | 121.80507 | 23987 ft | 462 kts | 185° |
| 2026-05-07 09:47 | 29.37891 | 121.80574 | 24118 ft | 464 kts | 185° |
| 2026-05-07 09:48 | 29.34659 | 121.80639 | 24296 ft | 466 kts | 185° |
| 2026-05-07 09:48 | 29.31415 | 121.80704 | 24461 ft | 467 kts | 185° |
| 2026-05-07 09:48 | 29.28160 | 121.80769 | 24625 ft | 468 kts | 185° |
| 2026-05-07 09:48 | 29.24907 | 121.80835 | 24854 ft | 467 kts | 185° |
| 2026-05-07 09:49 | 29.21652 | 121.80900 | 25032 ft | 468 kts | 185° |
| 2026-05-07 09:49 | 29.18391 | 121.80964 | 25188 ft | 470 kts | 185° |
| 2026-05-07 09:49 | 29.15118 | 121.81029 | 25336 ft | 471 kts | 185° |
| 2026-05-07 09:49 | 29.11833 | 121.81095 | 25472 ft | 472 kts | 185° |
| 2026-05-07 09:50 | 29.08545 | 121.81161 | 25620 ft | 473 kts | 185° |
| 2026-05-07 09:50 | 29.05248 | 121.81226 | 25753 ft | 475 kts | 185° |
| 2026-05-07 09:50 | 29.01939 | 121.81292 | 25881 ft | 475 kts | 185° |
| 2026-05-07 09:50 | 28.98626 | 121.81360 | 26012 ft | 476 kts | 185° |
| 2026-05-07 09:51 | 28.95311 | 121.81429 | 26143 ft | 477 kts | 185° |
| 2026-05-07 09:51 | 28.91984 | 121.81496 | 26252 ft | 478 kts | 185° |
| 2026-05-07 09:51 | 28.88656 | 121.81563 | 26371 ft | 479 kts | 185° |
| 2026-05-07 09:51 | 28.85321 | 121.81630 | 26491 ft | 480 kts | 185° |
| 2026-05-07 09:52 | 28.81979 | 121.81699 | 26615 ft | 480 kts | 185° |
| 2026-05-07 09:52 | 28.78638 | 121.81769 | 26730 ft | 480 kts | 185° |
| 2026-05-07 09:52 | 28.75294 | 121.81837 | 26854 ft | 481 kts | 185° |
| 2026-05-07 09:52 | 28.71947 | 121.81904 | 26980 ft | 482 kts | 185° |
| 2026-05-07 09:53 | 28.68594 | 121.81968 | 27110 ft | 482 kts | 185° |
| 2026-05-07 09:53 | 28.65240 | 121.82031 | 27253 ft | 482 kts | 185° |
| 2026-05-07 09:53 | 28.61889 | 121.82096 | 27401 ft | 482 kts | 185° |
| 2026-05-07 09:53 | 28.58533 | 121.82165 | 27544 ft | 482 kts | 185° |
| 2026-05-07 09:54 | 28.55183 | 121.82237 | 27689 ft | 482 kts | 185° |
| 2026-05-07 09:54 | 28.51828 | 121.82310 | 27811 ft | 482 kts | 185° |
| 2026-05-07 09:54 | 28.48479 | 121.82381 | 27938 ft | 482 kts | 185° |
| 2026-05-07 09:54 | 28.45122 | 121.82447 | 28073 ft | 482 kts | 185° |
| 2026-05-07 09:55 | 28.41766 | 121.82512 | 28220 ft | 482 kts | 185° |
| 2026-05-07 09:55 | 28.38411 | 121.82577 | 28364 ft | 482 kts | 185° |
| 2026-05-07 09:55 | 28.35060 | 121.82641 | 28506 ft | 482 kts | 185° |
| 2026-05-07 09:55 | 28.31707 | 121.82704 | 28656 ft | 482 kts | 185° |
| 2026-05-07 09:56 | 28.28356 | 121.82771 | 28769 ft | 482 kts | 185° |
| 2026-05-07 09:56 | 28.25000 | 121.82843 | 28917 ft | 482 kts | 185° |
| 2026-05-07 09:56 | 28.21653 | 121.82913 | 29063 ft | 481 kts | 185° |
| 2026-05-07 09:56 | 28.18301 | 121.82977 | 29201 ft | 481 kts | 185° |
| 2026-05-07 09:57 | 28.14953 | 121.83039 | 29337 ft | 481 kts | 185° |
| 2026-05-07 09:57 | 28.11605 | 121.83102 | 29473 ft | 481 kts | 185° |
| 2026-05-07 09:57 | 28.08257 | 121.83168 | 29603 ft | 481 kts | 185° |
| 2026-05-07 09:57 | 28.04913 | 121.83218 | 29741 ft | 479 kts | 188° |
| 2026-05-07 09:58 | 28.01626 | 121.82878 | 29851 ft | 470 kts | 195° |
| 2026-05-07 09:58 | 27.98481 | 121.81982 | 29982 ft | 463 kts | 204° |
| 2026-05-07 09:58 | 27.95578 | 121.80591 | 30099 ft | 457 kts | 212° |
| 2026-05-07 09:58 | 27.92803 | 121.78870 | 30213 ft | 455 kts | 213° |
| 2026-05-07 09:59 | 27.90026 | 121.77143 | 30327 ft | 455 kts | 213° |
| 2026-05-07 09:59 | 27.87247 | 121.75427 | 30442 ft | 455 kts | 213° |
| 2026-05-07 09:59 | 27.84466 | 121.73717 | 30559 ft | 455 kts | 213° |
| 2026-05-07 09:59 | 27.81687 | 121.72008 | 30681 ft | 454 kts | 213° |
| 2026-05-07 10:00 | 27.78916 | 121.70300 | 30785 ft | 454 kts | 212° |
| 2026-05-07 10:00 | 27.76142 | 121.68593 | 30901 ft | 454 kts | 212° |
| 2026-05-07 10:00 | 27.73375 | 121.66890 | 31021 ft | 454 kts | 213° |
| 2026-05-07 10:00 | 27.70604 | 121.65180 | 31135 ft | 454 kts | 213° |
| 2026-05-07 10:01 | 27.67835 | 121.63468 | 31256 ft | 454 kts | 213° |
| 2026-05-07 10:01 | 27.65068 | 121.61761 | 31379 ft | 453 kts | 213° |
| 2026-05-07 10:01 | 27.62300 | 121.60057 | 31515 ft | 453 kts | 213° |
| 2026-05-07 10:01 | 27.59538 | 121.58360 | 31644 ft | 453 kts | 213° |
| 2026-05-07 10:02 | 27.56765 | 121.56658 | 31765 ft | 452 kts | 213° |
| 2026-05-07 10:02 | 27.54003 | 121.54971 | 31905 ft | 451 kts | 213° |
| 2026-05-07 10:02 | 27.52173 | 121.53855 | 32006 ft | 451 kts | 213° |
| 2026-05-07 10:02 | 27.48479 | 121.51605 | 32176 ft | 451 kts | 213° |
| 2026-05-07 10:03 | 27.46651 | 121.50491 | 32254 ft | 451 kts | 213° |
| 2026-05-07 10:03 | 27.43890 | 121.48810 | 32378 ft | 451 kts | 213° |
| 2026-05-07 10:03 | 27.41127 | 121.47127 | 32508 ft | 451 kts | 213° |
| 2026-05-07 10:03 | 27.38370 | 121.45444 | 32628 ft | 451 kts | 213° |
| 2026-05-07 10:04 | 27.35603 | 121.43754 | 32765 ft | 451 kts | 213° |
| 2026-05-07 10:04 | 27.32848 | 121.42072 | 32893 ft | 451 kts | 213° |
| 2026-05-07 10:04 | 27.30089 | 121.40391 | 33035 ft | 451 kts | 213° |
| 2026-05-07 10:04 | 27.27329 | 121.38717 | 33163 ft | 451 kts | 212° |
| 2026-05-07 10:05 | 27.24566 | 121.37048 | 33291 ft | 451 kts | 213° |
| 2026-05-07 10:05 | 27.21808 | 121.35378 | 33420 ft | 450 kts | 213° |
| 2026-05-07 10:05 | 27.19055 | 121.33705 | 33549 ft | 450 kts | 213° |
| 2026-05-07 10:05 | 27.16303 | 121.32031 | 33679 ft | 450 kts | 213° |
| 2026-05-07 10:06 | 27.13545 | 121.30355 | 33797 ft | 450 kts | 213° |
| 2026-05-07 10:06 | 27.10794 | 121.28687 | 33957 ft | 449 kts | 213° |
| 2026-05-07 10:06 | 27.08040 | 121.27022 | 34024 ft | 451 kts | 213° |
| 2026-05-07 10:07 | 27.02504 | 121.23674 | 34036 ft | 452 kts | 213° |
| 2026-05-07 10:07 | 26.96963 | 121.20325 | 34034 ft | 452 kts | 213° |
| 2026-05-07 10:08 | 26.91420 | 121.16974 | 34016 ft | 453 kts | 213° |
| 2026-05-07 10:08 | 26.85857 | 121.13613 | 34034 ft | 455 kts | 213° |
| 2026-05-07 10:09 | 26.80277 | 121.10252 | 34036 ft | 456 kts | 213° |
| 2026-05-07 10:09 | 26.74690 | 121.06895 | 34039 ft | 456 kts | 213° |
| 2026-05-07 10:10 | 26.69093 | 121.03527 | 34041 ft | 456 kts | 213° |
| 2026-05-07 10:10 | 26.63530 | 121.00186 | 34031 ft | 456 kts | 213° |
| 2026-05-07 10:11 | 26.57937 | 120.96822 | 34037 ft | 456 kts | 213° |
| 2026-05-07 10:11 | 26.52347 | 120.93460 | 34048 ft | 456 kts | 213° |
| 2026-05-07 10:12 | 26.46767 | 120.90113 | 34051 ft | 455 kts | 213° |
| 2026-05-07 10:12 | 26.41190 | 120.86770 | 34045 ft | 455 kts | 212° |
| 2026-05-07 10:13 | 26.35620 | 120.83429 | 34047 ft | 455 kts | 212° |
| 2026-05-07 10:13 | 26.30041 | 120.80093 | 34051 ft | 455 kts | 212° |
| 2026-05-07 10:14 | 26.24462 | 120.76769 | 34054 ft | 455 kts | 212° |
| 2026-05-07 10:14 | 26.18879 | 120.73440 | 34023 ft | 455 kts | 212° |
| 2026-05-07 10:15 | 26.13294 | 120.70108 | 34029 ft | 456 kts | 212° |
| 2026-05-07 10:15 | 26.07695 | 120.66773 | 34037 ft | 456 kts | 212° |
| 2026-05-07 10:16 | 26.02103 | 120.63444 | 34040 ft | 456 kts | 212° |
| 2026-05-07 10:16 | 25.96500 | 120.60119 | 34023 ft | 456 kts | 212° |
| 2026-05-07 10:17 | 25.90889 | 120.56800 | 34033 ft | 457 kts | 212° |
| 2026-05-07 10:17 | 25.85281 | 120.53476 | 34032 ft | 457 kts | 212° |
| 2026-05-07 10:18 | 25.79673 | 120.50154 | 34035 ft | 457 kts | 212° |
| 2026-05-07 10:18 | 25.74060 | 120.46829 | 34025 ft | 457 kts | 212° |
| 2026-05-07 10:19 | 25.68447 | 120.43506 | 34027 ft | 458 kts | 212° |
| 2026-05-07 10:19 | 25.62841 | 120.40159 | 34034 ft | 456 kts | 216° |
| 2026-05-07 10:20 | 25.57788 | 120.36070 | 34045 ft | 452 kts | 221° |
| 2026-05-07 10:20 | 25.52762 | 120.31886 | 34029 ft | 452 kts | 220° |
| 2026-05-07 10:21 | 25.47724 | 120.27713 | 34032 ft | 452 kts | 221° |
| 2026-05-07 10:21 | 25.42684 | 120.23533 | 34035 ft | 453 kts | 221° |
| 2026-05-07 10:22 | 25.37645 | 120.19352 | 34036 ft | 453 kts | 221° |
| 2026-05-07 10:22 | 25.32600 | 120.15179 | 34038 ft | 453 kts | 220° |
| 2026-05-07 10:23 | 25.27551 | 120.11010 | 34027 ft | 453 kts | 220° |
| 2026-05-07 10:23 | 25.22502 | 120.06836 | 34034 ft | 453 kts | 220° |
| 2026-05-07 10:24 | 25.17454 | 120.02656 | 34038 ft | 453 kts | 220° |
| 2026-05-07 10:24 | 25.12410 | 119.98489 | 34042 ft | 453 kts | 220° |
| 2026-05-07 10:25 | 25.07361 | 119.94322 | 34044 ft | 453 kts | 220° |
| 2026-05-07 10:25 | 25.02302 | 119.90168 | 34045 ft | 453 kts | 220° |
| 2026-05-07 10:26 | 24.97806 | 119.85477 | 34043 ft | 446 kts | 233° |
| 2026-05-07 10:26 | 24.93766 | 119.80281 | 34046 ft | 446 kts | 233° |
| 2026-05-07 10:27 | 24.89720 | 119.75091 | 34048 ft | 446 kts | 233° |
| 2026-05-07 10:27 | 24.85648 | 119.69873 | 34031 ft | 446 kts | 233° |
| 2026-05-07 10:28 | 24.81620 | 119.64721 | 34036 ft | 447 kts | 233° |
| 2026-05-07 10:28 | 24.77570 | 119.59537 | 34035 ft | 447 kts | 233° |
| 2026-05-07 10:29 | 24.73502 | 119.54342 | 34036 ft | 447 kts | 233° |
| 2026-05-07 10:29 | 24.69443 | 119.49169 | 34042 ft | 447 kts | 233° |
| 2026-05-07 10:30 | 24.63347 | 119.41410 | 34032 ft | 446 kts | 233° |
| 2026-05-07 10:30 | 24.59310 | 119.36275 | 34034 ft | 446 kts | 233° |
| 2026-05-07 10:31 | 24.55246 | 119.31114 | 34034 ft | 446 kts | 233° |
| 2026-05-07 10:31 | 24.51181 | 119.25954 | 34038 ft | 447 kts | 233° |
| 2026-05-07 10:32 | 24.47119 | 119.20803 | 34044 ft | 446 kts | 233° |
| 2026-05-07 10:32 | 24.43061 | 119.15655 | 34039 ft | 446 kts | 233° |
| 2026-05-07 10:33 | 24.38997 | 119.10515 | 34024 ft | 446 kts | 233° |
| 2026-05-07 10:33 | 24.34926 | 119.05377 | 34035 ft | 446 kts | 233° |
| 2026-05-07 10:34 | 24.30852 | 119.00240 | 34033 ft | 446 kts | 233° |
| 2026-05-07 10:34 | 24.26777 | 118.95100 | 34029 ft | 447 kts | 233° |
| 2026-05-07 10:35 | 24.22700 | 118.89963 | 34035 ft | 447 kts | 233° |
| 2026-05-07 10:35 | 24.18619 | 118.84827 | 34016 ft | 447 kts | 233° |
| 2026-05-07 10:36 | 24.14527 | 118.79682 | 34014 ft | 448 kts | 233° |
| 2026-05-07 10:36 | 24.10456 | 118.74574 | 34015 ft | 448 kts | 233° |
| 2026-05-07 10:37 | 24.06356 | 118.69426 | 34023 ft | 449 kts | 233° |
| 2026-05-07 10:37 | 24.02250 | 118.64272 | 34031 ft | 449 kts | 233° |
| 2026-05-07 10:38 | 23.98138 | 118.59136 | 34031 ft | 448 kts | 233° |
| 2026-05-07 10:38 | 23.94032 | 118.54001 | 34028 ft | 448 kts | 233° |
| 2026-05-07 10:39 | 23.89926 | 118.48865 | 34031 ft | 449 kts | 233° |
| 2026-05-07 10:39 | 23.85811 | 118.43731 | 34033 ft | 449 kts | 233° |
| 2026-05-07 10:40 | 23.81673 | 118.38617 | 34030 ft | 449 kts | 232° |
| 2026-05-07 10:40 | 23.77517 | 118.33514 | 34037 ft | 449 kts | 232° |
| 2026-05-07 10:41 | 23.73363 | 118.28414 | 34027 ft | 450 kts | 232° |
| 2026-05-07 10:41 | 23.69234 | 118.23335 | 34026 ft | 450 kts | 232° |
| 2026-05-07 10:42 | 23.65077 | 118.18225 | 34029 ft | 451 kts | 232° |
| 2026-05-07 10:42 | 23.60911 | 118.13114 | 34033 ft | 451 kts | 232° |
| 2026-05-07 10:43 | 23.56716 | 118.07975 | 34034 ft | 451 kts | 232° |
| 2026-05-07 10:43 | 23.52573 | 118.02898 | 34027 ft | 451 kts | 232° |
| 2026-05-07 10:44 | 23.48393 | 117.97787 | 34031 ft | 451 kts | 232° |
| 2026-05-07 10:44 | 23.44212 | 117.92680 | 34033 ft | 452 kts | 232° |
| 2026-05-07 10:45 | 23.40029 | 117.87573 | 34035 ft | 452 kts | 232° |
| 2026-05-07 10:45 | 23.35843 | 117.82465 | 34036 ft | 452 kts | 232° |
| 2026-05-07 10:46 | 23.32366 | 117.78226 | 34039 ft | 452 kts | 232° |
| 2026-05-07 10:46 | 23.28168 | 117.73130 | 34023 ft | 452 kts | 231° |
| 2026-05-07 10:47 | 23.23966 | 117.68029 | 34027 ft | 453 kts | 231° |
| 2026-05-07 10:47 | 23.19766 | 117.62922 | 34031 ft | 453 kts | 231° |
| 2026-05-07 10:48 | 23.15565 | 117.57815 | 34037 ft | 453 kts | 231° |
| 2026-05-07 10:48 | 23.11353 | 117.52712 | 34039 ft | 453 kts | 231° |
| 2026-05-07 10:49 | 23.07146 | 117.47605 | 34038 ft | 453 kts | 232° |
| 2026-05-07 10:49 | 23.02990 | 117.42463 | 34037 ft | 453 kts | 232° |
| 2026-05-07 10:50 | 22.98853 | 117.37303 | 34039 ft | 453 kts | 232° |
| 2026-05-07 10:50 | 22.94708 | 117.32151 | 34041 ft | 453 kts | 232° |
| 2026-05-07 10:51 | 22.90921 | 117.26728 | 34044 ft | 450 kts | 237° |
| 2026-05-07 10:51 | 22.87222 | 117.21230 | 34044 ft | 450 kts | 237° |
| 2026-05-07 10:52 | 22.83553 | 117.15771 | 34043 ft | 450 kts | 237° |
| 2026-05-07 10:52 | 22.79839 | 117.10255 | 34047 ft | 450 kts | 237° |
| 2026-05-07 10:53 | 22.76151 | 117.04790 | 34050 ft | 449 kts | 237° |
| 2026-05-07 10:53 | 22.72944 | 116.99098 | 34048 ft | 443 kts | 250° |
| 2026-05-07 10:54 | 22.70683 | 116.92892 | 34047 ft | 443 kts | 251° |
| 2026-05-07 10:54 | 22.68408 | 116.86700 | 34048 ft | 443 kts | 251° |
| 2026-05-07 10:55 | 22.66117 | 116.80499 | 34033 ft | 444 kts | 251° |
| 2026-05-07 10:55 | 22.63835 | 116.74321 | 34029 ft | 444 kts | 251° |
| 2026-05-07 10:56 | 22.61534 | 116.68100 | 34031 ft | 444 kts | 251° |
| 2026-05-07 10:56 | 22.59241 | 116.61893 | 34039 ft | 444 kts | 251° |
| 2026-05-07 10:57 | 22.56942 | 116.55686 | 34038 ft | 444 kts | 251° |
| 2026-05-07 10:57 | 22.54632 | 116.49459 | 34021 ft | 446 kts | 252° |
| 2026-05-07 10:58 | 22.52330 | 116.43254 | 34021 ft | 447 kts | 252° |
| 2026-05-07 10:58 | 22.50009 | 116.37010 | 34019 ft | 448 kts | 252° |
| 2026-05-07 10:59 | 22.47685 | 116.30760 | 34023 ft | 448 kts | 251° |
| 2026-05-07 10:59 | 22.45346 | 116.24493 | 34027 ft | 449 kts | 251° |
| 2026-05-07 11:00 | 22.43009 | 116.18234 | 34022 ft | 449 kts | 251° |
| 2026-05-07 11:00 | 22.40671 | 116.11976 | 34027 ft | 449 kts | 251° |
| 2026-05-07 11:01 | 22.38352 | 116.05757 | 34035 ft | 449 kts | 251° |
| 2026-05-07 11:01 | 22.36002 | 115.99499 | 34029 ft | 450 kts | 251° |
| 2026-05-07 11:02 | 22.33685 | 115.93345 | 34025 ft | 427 kts | 251° |
| 2026-05-07 11:02 | 22.31481 | 115.87502 | 34025 ft | 417 kts | 251° |
| 2026-05-07 11:03 | 22.29728 | 115.81557 | 33502 ft | 423 kts | 263° |
| 2026-05-07 11:03 | 22.29459 | 115.78313 | 32345 ft | 441 kts | 270° |
| 2026-05-07 11:03 | 22.29400 | 115.74970 | 31291 ft | 448 kts | 270° |
| 2026-05-07 11:04 | 22.29329 | 115.71611 | 30673 ft | 444 kts | 269° |
| 2026-05-07 11:04 | 22.29247 | 115.68315 | 30295 ft | 435 kts | 269° |
| 2026-05-07 11:04 | 22.29161 | 115.65115 | 29803 ft | 430 kts | 269° |
| 2026-05-07 11:04 | 22.29073 | 115.61898 | 29217 ft | 425 kts | 269° |
| 2026-05-07 11:05 | 22.28981 | 115.58725 | 28634 ft | 421 kts | 269° |
| 2026-05-07 11:05 | 22.28893 | 115.55582 | 28047 ft | 417 kts | 269° |
| 2026-05-07 11:05 | 22.28804 | 115.52470 | 27465 ft | 413 kts | 269° |
| 2026-05-07 11:05 | 22.28715 | 115.49379 | 26894 ft | 409 kts | 269° |
| 2026-05-07 11:06 | 22.28626 | 115.46319 | 26333 ft | 405 kts | 269° |
| 2026-05-07 11:06 | 22.28540 | 115.43292 | 25784 ft | 402 kts | 269° |
| 2026-05-07 11:06 | 22.28458 | 115.40289 | 25231 ft | 399 kts | 269° |
| 2026-05-07 11:06 | 22.28375 | 115.37311 | 24986 ft | 397 kts | 269° |
| 2026-05-07 11:07 | 22.28291 | 115.34325 | 24899 ft | 397 kts | 269° |
| 2026-05-07 11:07 | 22.28206 | 115.31340 | 24920 ft | 399 kts | 269° |
| 2026-05-07 11:07 | 22.28118 | 115.28338 | 24512 ft | 403 kts | 269° |
| 2026-05-07 11:07 | 22.28025 | 115.25300 | 23894 ft | 402 kts | 269° |
| 2026-05-07 11:08 | 22.27931 | 115.22323 | 23565 ft | 392 kts | 269° |
| 2026-05-07 11:08 | 22.27840 | 115.19461 | 23379 ft | 368 kts | 269° |
| 2026-05-07 11:08 | 22.27755 | 115.16788 | 22898 ft | 348 kts | 269° |
| 2026-05-07 11:08 | 22.27675 | 115.14204 | 22536 ft | 341 kts | 269° |
| 2026-05-07 11:09 | 22.27599 | 115.11697 | 22147 ft | 336 kts | 269° |
| 2026-05-07 11:09 | 22.27519 | 115.09155 | 21697 ft | 333 kts | 268° |
| 2026-05-07 11:09 | 22.27437 | 115.06701 | 21249 ft | 330 kts | 268° |
| 2026-05-07 11:09 | 22.27355 | 115.04230 | 20798 ft | 328 kts | 268° |
| 2026-05-07 11:10 | 22.27273 | 115.01774 | 20355 ft | 326 kts | 268° |
| 2026-05-07 11:10 | 22.27195 | 114.99342 | 19863 ft | 321 kts | 268° |
| 2026-05-07 11:10 | 22.27118 | 114.96951 | 19077 ft | 317 kts | 268° |
| 2026-05-07 11:10 | 22.27040 | 114.94582 | 18294 ft | 314 kts | 268° |
| 2026-05-07 11:11 | 22.26962 | 114.92237 | 17430 ft | 311 kts | 268° |
| 2026-05-07 11:11 | 22.26887 | 114.89918 | 16590 ft | 308 kts | 268° |
| 2026-05-07 11:11 | 22.26813 | 114.87620 | 15794 ft | 304 kts | 268° |
| 2026-05-07 11:11 | 22.26736 | 114.85347 | 15016 ft | 301 kts | 268° |
| 2026-05-07 11:12 | 22.26663 | 114.83121 | 14274 ft | 299 kts | 268° |
| 2026-05-07 11:12 | 22.26527 | 114.80899 | 13515 ft | 296 kts | 261° |
| 2026-05-07 11:12 | 22.25979 | 114.78777 | 12836 ft | 291 kts | 246° |
| 2026-05-07 11:12 | 22.24991 | 114.76860 | 12907 ft | 296 kts | 236° |
| 2026-05-07 11:13 | 22.23627 | 114.75177 | 12918 ft | 299 kts | 225° |
| 2026-05-07 11:13 | 22.22116 | 114.73626 | 12921 ft | 300 kts | 225° |
| 2026-05-07 11:13 | 22.20603 | 114.72075 | 12920 ft | 300 kts | 225° |
| 2026-05-07 11:13 | 22.19091 | 114.70520 | 12921 ft | 300 kts | 225° |
| 2026-05-07 11:14 | 22.17582 | 114.68962 | 12909 ft | 301 kts | 225° |
| 2026-05-07 11:14 | 22.16091 | 114.67432 | 12750 ft | 299 kts | 225° |
| 2026-05-07 11:14 | 22.14593 | 114.65876 | 12490 ft | 298 kts | 226° |
| 2026-05-07 11:14 | 22.13118 | 114.64313 | 12241 ft | 297 kts | 226° |
| 2026-05-07 11:15 | 22.11652 | 114.62753 | 12000 ft | 295 kts | 226° |
| 2026-05-07 11:15 | 22.10191 | 114.61193 | 11758 ft | 294 kts | 226° |
| 2026-05-07 11:15 | 22.08740 | 114.59635 | 11497 ft | 294 kts | 226° |
| 2026-05-07 11:15 | 22.07298 | 114.58077 | 11257 ft | 293 kts | 226° |
| 2026-05-07 11:16 | 22.05858 | 114.56518 | 11040 ft | 292 kts | 226° |
| 2026-05-07 11:16 | 22.04429 | 114.54967 | 10912 ft | 291 kts | 226° |
| 2026-05-07 11:16 | 22.03003 | 114.53418 | 10801 ft | 292 kts | 226° |
| 2026-05-07 11:16 | 22.01598 | 114.51887 | 10568 ft | 290 kts | 226° |
| 2026-05-07 11:17 | 22.00185 | 114.50344 | 10335 ft | 289 kts | 226° |
| 2026-05-07 11:17 | 21.98777 | 114.48803 | 10106 ft | 287 kts | 226° |
| 2026-05-07 11:17 | 21.97380 | 114.47271 | 9878 ft | 286 kts | 227° |
| 2026-05-07 11:17 | 21.96286 | 114.45509 | 9626 ft | 283 kts | 250° |
| 2026-05-07 11:18 | 21.95924 | 114.43431 | 9255 ft | 283 kts | 265° |
| 2026-05-07 11:18 | 21.95795 | 114.41318 | 8882 ft | 282 kts | 266° |
| 2026-05-07 11:18 | 21.95687 | 114.39217 | 8514 ft | 280 kts | 266° |
| 2026-05-07 11:18 | 21.95580 | 114.37126 | 8150 ft | 279 kts | 266° |
| 2026-05-07 11:19 | 21.95473 | 114.35037 | 7786 ft | 278 kts | 266° |
| 2026-05-07 11:19 | 21.95365 | 114.32967 | 7432 ft | 276 kts | 266° |
| 2026-05-07 11:19 | 21.95254 | 114.30898 | 6963 ft | 277 kts | 266° |
| 2026-05-07 11:19 | 21.95137 | 114.28822 | 6497 ft | 278 kts | 266° |
| 2026-05-07 11:20 | 21.95061 | 114.26740 | 6018 ft | 278 kts | 274° |
| 2026-05-07 11:20 | 21.95516 | 114.24723 | 5590 ft | 276 kts | 289° |
| 2026-05-07 11:20 | 21.96142 | 114.22796 | 5470 ft | 272 kts | 289° |
| 2026-05-07 11:20 | 21.96755 | 114.20909 | 5345 ft | 261 kts | 289° |
| 2026-05-07 11:21 | 21.97339 | 114.19106 | 5214 ft | 249 kts | 289° |
| 2026-05-07 11:21 | 21.97888 | 114.17406 | 5098 ft | 240 kts | 289° |
| 2026-05-07 11:21 | 21.98439 | 114.15697 | 4977 ft | 237 kts | 289° |
| 2026-05-07 11:21 | 21.98981 | 114.14018 | 4858 ft | 237 kts | 289° |
| 2026-05-07 11:22 | 21.99515 | 114.12366 | 4737 ft | 236 kts | 289° |
| 2026-05-07 11:22 | 22.00053 | 114.10702 | 4647 ft | 235 kts | 289° |
| 2026-05-07 11:22 | 22.00591 | 114.09040 | 4533 ft | 236 kts | 289° |
| 2026-05-07 11:22 | 22.01129 | 114.07371 | 4527 ft | 236 kts | 289° |
| 2026-05-07 11:23 | 22.01668 | 114.05696 | 4530 ft | 237 kts | 288° |
| 2026-05-07 11:23 | 22.02209 | 114.04017 | 4531 ft | 236 kts | 289° |
| 2026-05-07 11:23 | 22.02750 | 114.02340 | 4528 ft | 237 kts | 288° |
| 2026-05-07 11:23 | 22.03290 | 114.00665 | 4527 ft | 235 kts | 289° |
| 2026-05-07 11:24 | 22.03810 | 113.99057 | 4463 ft | 221 kts | 289° |
| 2026-05-07 11:24 | 22.04310 | 113.97513 | 4359 ft | 216 kts | 289° |
| 2026-05-07 11:24 | 22.04808 | 113.95969 | 4218 ft | 215 kts | 288° |
| 2026-05-07 11:24 | 22.05290 | 113.94470 | 4113 ft | 214 kts | 288° |
| 2026-05-07 11:25 | 22.05777 | 113.92950 | 4003 ft | 214 kts | 288° |
| 2026-05-07 11:25 | 22.06263 | 113.91431 | 3868 ft | 214 kts | 288° |
| 2026-05-07 11:25 | 22.06748 | 113.89917 | 3752 ft | 214 kts | 288° |
| 2026-05-07 11:25 | 22.07236 | 113.88396 | 3631 ft | 214 kts | 288° |
| 2026-05-07 11:26 | 22.07723 | 113.86877 | 3503 ft | 214 kts | 288° |
| 2026-05-07 11:26 | 22.08208 | 113.85365 | 3389 ft | 213 kts | 288° |
| 2026-05-07 11:26 | 22.08693 | 113.83854 | 3265 ft | 213 kts | 288° |
| 2026-05-07 11:26 | 22.09172 | 113.82361 | 3154 ft | 213 kts | 288° |
| 2026-05-07 11:27 | 22.09657 | 113.80851 | 3079 ft | 214 kts | 288° |
| 2026-05-07 11:27 | 22.10203 | 113.79359 | 3025 ft | 215 kts | 295° |
| 2026-05-07 11:27 | 22.11049 | 113.78024 | 3033 ft | 217 kts | 309° |
| 2026-05-07 11:27 | 22.12177 | 113.76941 | 3034 ft | 218 kts | 324° |
| 2026-05-07 11:28 | 22.13515 | 113.76167 | 3033 ft | 219 kts | 334° |
| 2026-05-07 11:28 | 22.14899 | 113.75484 | 3034 ft | 218 kts | 334° |
| 2026-05-07 11:28 | 22.16275 | 113.74799 | 3035 ft | 217 kts | 334° |
| 2026-05-07 11:28 | 22.17653 | 113.74111 | 3032 ft | 219 kts | 334° |
| 2026-05-07 11:29 | 22.19040 | 113.73420 | 2993 ft | 216 kts | 334° |
| 2026-05-07 11:29 | 22.20360 | 113.72764 | 2857 ft | 204 kts | 334° |
| 2026-05-07 11:29 | 22.21626 | 113.72135 | 2732 ft | 199 kts | 334° |
| 2026-05-07 11:29 | 22.22961 | 113.71784 | 2608 ft | 201 kts | 0° |
| 2026-05-07 11:30 | 22.24295 | 113.72163 | 2495 ft | 198 kts | 31° |
| 2026-05-07 11:30 | 22.25370 | 113.73083 | 2379 ft | 199 kts | 42° |
| 2026-05-07 11:30 | 22.26425 | 113.74068 | 1991 ft | 206 kts | 43° |
| 2026-05-07 11:30 | 22.27503 | 113.75080 | 1642 ft | 204 kts | 46° |
| 2026-05-07 11:31 | 22.28286 | 113.76276 | 1528 ft | 192 kts | 68° |
| 2026-05-07 11:31 | 22.28718 | 113.77590 | 1511 ft | 177 kts | 73° |
| 2026-05-07 11:31 | 22.29114 | 113.78812 | 1508 ft | 166 kts | 73° |
| 2026-05-07 11:31 | 22.29486 | 113.79953 | 1461 ft | 158 kts | 72° |
| 2026-05-07 11:32 | 22.30191 | 113.82133 | 1148 ft | 152 kts | 75° |
| 2026-05-07 11:32 | 22.30539 | 113.83209 | 977 ft | 151 kts | 74° |
| 2026-05-07 11:32 | 22.30886 | 113.84285 | 798 ft | 151 kts | 75° |
| 2026-05-07 11:33 | 22.31232 | 113.85355 | 622 ft | 150 kts | 75° |
| 2026-05-07 11:33 | 22.31575 | 113.86419 | 419 ft | 152 kts | 75° |
| 2026-05-07 11:33 | 22.31924 | 113.87485 | 218 ft | 148 kts | 73° |
| 2026-05-07 11:33 | 22.32261 | 113.88531 | 48 ft | 145 kts | 74° |
| 2026-05-07 11:34 | 22.32548 | 113.89486 | 35 ft | 115 kts | 71° |
| 2026-05-07 11:34 | 22.32746 | 113.90106 | 34 ft | 64 kts | 70° |
| 2026-05-07 11:34 | 22.32825 | 113.90392 | 36 ft | 29 kts | 89° |
| 2026-05-07 11:34 | 22.32802 | 113.90550 | 36 ft | 10 kts | 100° |
| 2026-05-07 11:35 | 22.32795 | 113.90590 | 36 ft | 1 kts | 100° |
| 2026-05-07 11:35 | 22.32792 | 113.90611 | 36 ft | 7 kts | 100° |
| 2026-05-07 11:35 | 22.32781 | 113.90686 | 36 ft | 13 kts | 93° |
| 2026-05-07 11:35 | 22.32820 | 113.90828 | 36 ft | 27 kts | 71° |
| 2026-05-07 11:36 | 22.32927 | 113.91173 | 36 ft | 44 kts | 71° |
| 2026-05-07 11:36 | 22.32992 | 113.91386 | 36 ft | 44 kts | 72° |
| 2026-05-07 11:36 | 22.33093 | 113.91694 | 36 ft | 43 kts | 71° |
| 2026-05-07 11:36 | 22.33181 | 113.91952 | 36 ft | 31 kts | 69° |
| 2026-05-07 11:37 | 22.33208 | 113.92102 | 36 ft | 15 kts | 120° |
| 2026-05-07 11:37 | 22.33145 | 113.92129 | 36 ft | 10 kts | 165° |
| 2026-05-07 11:37 | 22.33066 | 113.92156 | 36 ft | 17 kts | 162° |
| 2026-05-07 11:37 | 22.32917 | 113.92212 | 35 ft | 27 kts | 160° |
| 2026-05-07 11:38 | 22.32738 | 113.92279 | 35 ft | 27 kts | 161° |
| 2026-05-07 11:38 | 22.32562 | 113.92346 | 35 ft | 27 kts | 160° |
| 2026-05-07 11:38 | 22.32387 | 113.92413 | 35 ft | 23 kts | 161° |
| 2026-05-07 11:38 | 22.32273 | 113.92458 | 35 ft | 13 kts | 153° |
| 2026-05-07 11:39 | 22.32250 | 113.92537 | 35 ft | 12 kts | 68° |
| 2026-05-07 11:39 | 22.32256 | 113.92555 | 34 ft | 0 kts | 70° |
| 2026-05-07 11:42 | 22.32279 | 113.92620 | 35 ft | 19 kts | 70° |
| 2026-05-07 11:42 | 22.32309 | 113.92730 | 35 ft | 7 kts | 108° |
| 2026-05-07 11:42 | 22.32246 | 113.92764 | 35 ft | 15 kts | 164° |
| 2026-05-07 11:43 | 22.32184 | 113.92786 | 35 ft | 0 kts | 160° |
| 2026-05-07 11:44 | 22.32182 | 113.92787 | 35 ft | 3 kts | 160° |
| 2026-05-07 11:44 | 22.32097 | 113.92819 | 35 ft | 23 kts | 160° |
| 2026-05-07 11:44 | 22.31951 | 113.92873 | 35 ft | 21 kts | 160° |
| 2026-05-07 11:44 | 22.31862 | 113.92910 | 35 ft | 12 kts | 147° |
| 2026-05-07 11:45 | 22.31856 | 113.93015 | 35 ft | 20 kts | 71° |
| 2026-05-07 11:45 | 22.31851 | 113.93120 | 34 ft | 13 kts | 139° |
| 2026-05-07 11:45 | 22.31797 | 113.93156 | 35 ft | 9 kts | 123° |
| 2026-05-07 11:45 | 22.31802 | 113.93212 | 35 ft | 7 kts | 66° |
| 2026-05-07 11:46 | 22.31816 | 113.93254 | 35 ft | 2 kts | 71° |
| 2026-05-07 11:46 | 22.31818 | 113.93261 | 35 ft | 0 kts | 70° |